Flight Track Log - Related Links

Times and Time Zones

All times are in EDT time to prevent confusion due to time zone crossing. See the AAL1459 flight status page for this flight to view local times or setup timezone preferences in your user account.

Time Position Orientation Groundspeed Altitude Reporting Facility
EDT Latitude Longitude Course Direction KTS MPH feet Rate Location/Type
Mon 06:19:06 PM 41.9167 -87.9500 270° West 211 243 3,000  Level Chicago TRACON
Mon 06:20:00 PM 41.9667 -88.1875 270° West  Level FlightAware
Mon 06:20:06 PM 41.8667 -88.0167 225° Southwest 251 289 5,800  Level Chicago TRACON
Mon 06:20:51 PM 41.8639 -88.0714 266° West 273 314 8,000 3,700 Climbing Chicago Center
Mon 06:21:00 PM 41.9667 -88.3312 270° West  Level FlightAware
Mon 06:21:06 PM 41.8833 -88.1000 312° West 261 300 9,500  Level Chicago TRACON
Mon 06:21:53 PM 41.8978 -88.1789 284° West 270 311 11,800 1,982 Climbing Chicago Center
Mon 06:22:00 PM 41.9667 -88.4750 270° West  Level FlightAware
Mon 06:22:55 PM 41.9272 -88.2811 291° West 294 338 13,100  Level Chicago Center
Mon 06:23:00 PM 41.9668 -88.6187 270° West  Level FlightAware
Mon 06:23:57 PM 41.9806 -88.3981 302° West 365 420 15,300  Level Chicago Center
Mon 06:24:00 PM 41.9667 -88.7618 270° West  Level FlightAware
Mon 06:24:59 PM 42.0347 -88.5175 301° West 375 432 17,700  Level Chicago Center
Mon 06:26:02 PM 42.0856 -88.6428 299° West 385 443 20,200 2,352 Climbing Chicago Center
Mon 06:27:04 PM 42.0878 -88.8144 271° West 389 448 22,600 1,839 Climbing Chicago Center
Mon 06:28:06 PM 42.0883 -88.9636 270° West 396 456 24,000 1,452 Climbing Chicago Center
Mon 06:29:08 PM 42.0883 -89.1181 270° West 410 472 25,600 1,694 Climbing Chicago Center
Mon 06:30:10 PM 42.0861 -89.2764 269° West 417 480 27,500 1,548 Climbing Chicago Center
Mon 06:31:12 PM 42.0844 -89.4344 269° West 420 483 28,800 1,597 Climbing Chicago Center
Mon 06:32:14 PM 42.0850 -89.5953 270° West 427 491 30,800 1,887 Climbing Chicago Center
Mon 06:33:16 PM 42.0828 -89.7714 269° West 406 467 32,700 1,548 Climbing Chicago Center
Mon 06:34:18 PM 42.0800 -89.9114 269° West 395 455 34,000 629 Climbing Chicago Center
Mon 06:35:20 PM 42.0808 -90.0528 271° West 383 441 34,000  Level Chicago Center
Mon 06:36:22 PM 42.1031 -90.1897 282° West 378 435 34,000  Level Chicago Center
Mon 06:37:24 PM 42.1222 -90.3294 281° West 381 438 34,000  Level Chicago Center
Mon 06:38:26 PM 42.1447 -90.4958 280° West 379 436 34,000  Level Chicago Center
Mon 06:39:28 PM 42.1653 -90.6353 281° West 381 438 34,000  Level Chicago Center
Mon 06:40:30 PM 42.1842 -90.7758 280° West 383 441 34,000  Level Chicago Center
Mon 06:41:32 PM 42.2028 -90.9156 280° West 383 441 34,000  Level Chicago Center
Mon 06:42:34 PM 42.2214 -91.0581 280° West 388 447 34,000  Level Chicago Center
Mon 06:43:36 PM 42.2450 -91.2278 281° West 387 445 34,000  Level Chicago Center
Mon 06:44:38 PM 42.2633 -91.3692 280° West 385 443 34,000  Level Chicago Center
Mon 06:45:40 PM 42.2822 -91.5114 280° West 387 445 34,000  Level Chicago Center
Mon 06:46:42 PM 42.3006 -91.6536 280° West 386 444 34,000  Level Chicago Center
Mon 06:47:44 PM 42.3194 -91.7967 280° West 386 444 34,000  Level Chicago Center
Mon 06:48:46 PM 42.3372 -91.9403 280° West 388 447 34,000  Level Chicago Center
Mon 06:49:48 PM 42.3592 -92.1106 280° West 385 443 34,000  Level Chicago Center
Mon 06:50:20 PM 42.3667 -92.1711 280° West 387 445 34,000  Level Minneapolis Center
Mon 06:51:21 PM 42.3842 -92.3153 279° West 390 449 34,000  Level Minneapolis Center
Mon 06:52:23 PM 42.4047 -92.4861 279° West 387 445 34,000  Level Minneapolis Center
Mon 06:53:25 PM 42.4225 -92.6286 280° West 386 444 34,000  Level Minneapolis Center
Mon 06:54:26 PM 42.4394 -92.7708 279° West 386 444 34,000  Level Minneapolis Center
Mon 06:55:28 PM 42.4569 -92.9106 280° West 382 440 34,000  Level Minneapolis Center
Mon 06:56:30 PM 42.4736 -93.0558 279° West 391 450 34,000  Level Minneapolis Center
Mon 06:57:31 PM 42.4897 -93.2017 279° West 396 456 34,000  Level Minneapolis Center
Mon 06:58:33 PM 42.5072 -93.3475 279° West 396 456 34,000  Level Minneapolis Center
Mon 06:59:35 PM 42.5261 -93.5228 278° West 395 455 34,000  Level Minneapolis Center
Mon 07:00:36 PM 42.5436 -93.6694 279° West 397 457 34,000  Level Minneapolis Center
Mon 07:01:38 PM 42.5636 -93.8142 281° West 395 455 34,000  Level Minneapolis Center
Mon 07:02:40 PM 42.6172 -93.9497 298° West 406 467 34,000  Level Minneapolis Center
Mon 07:03:41 PM 42.6686 -94.0872 297° West 409 471 34,000  Level Minneapolis Center
Mon 07:04:43 PM 42.7194 -94.2228 297° West 406 467 34,000  Level Minneapolis Center
Mon 07:05:45 PM 42.7811 -94.3853 297° West 406 467 34,000  Level Minneapolis Center
Mon 07:06:46 PM 42.8325 -94.5217 297° West 409 471 34,000  Level Minneapolis Center
Mon 07:07:48 PM 42.8781 -94.6419 297° West 405 466 34,000  Level Minneapolis Center
Mon 07:08:50 PM 42.9394 -94.8075 297° West 407 468 34,000  Level Minneapolis Center
Mon 07:09:51 PM 42.9914 -94.9483 297° West 413 475 34,000  Level Minneapolis Center
Mon 07:10:53 PM 43.0439 -95.0881 297° West 415 478 34,000  Level Minneapolis Center
Mon 07:11:55 PM 43.0958 -95.2292 297° West 415 478 34,000  Level Minneapolis Center
Mon 07:12:56 PM 43.1489 -95.3706 297° West 416 479 34,000  Level Minneapolis Center
Mon 07:13:58 PM 43.1997 -95.5153 296° West 420 483 34,000  Level Minneapolis Center
Mon 07:15:00 PM 43.2622 -95.6872 297° West 421 484 34,000  Level Minneapolis Center
Mon 07:16:01 PM 43.3150 -95.8303 297° West 421 484 34,000  Level Minneapolis Center
Mon 07:17:03 PM 43.3650 -95.9733 296° West 416 479 34,000  Level Minneapolis Center
Mon 07:18:05 PM 43.4156 -96.1158 296° West 415 478 34,000  Level Minneapolis Center
Mon 07:19:06 PM 43.4672 -96.2589 296° West 416 479 34,000  Level Minneapolis Center
Mon 07:20:08 PM 43.5167 -96.4028 295° West 415 478 34,000  Level Minneapolis Center
Mon 07:21:10 PM 43.5678 -96.5475 296° West 417 480 34,000  Level Minneapolis Center
Mon 07:22:11 PM 43.6181 -96.6911 296° West 415 478 34,000  Level Minneapolis Center
Mon 07:23:13 PM 43.6567 -96.8700 287° West 403 464 34,000  Level Minneapolis Center
Mon 07:24:15 PM 43.6686 -97.0217 276° West 397 457 34,000  Level Minneapolis Center
Mon 07:25:17 PM 43.6808 -97.1769 276° West 404 465 34,000  Level Minneapolis Center
Mon 07:26:18 PM 43.6925 -97.3336 276° West 408 470 34,000  Level Minneapolis Center
Mon 07:27:20 PM 43.7033 -97.4922 275° West 414 476 34,000  Level Minneapolis Center
Mon 07:28:22 PM 43.7153 -97.6481 276° West 409 471 34,000  Level Minneapolis Center
Mon 07:29:24 PM 43.7261 -97.8042 276° West 409 471 34,000  Level Minneapolis Center
Mon 07:30:26 PM 43.7375 -97.9603 276° West 408 470 34,000  Level Minneapolis Center
Mon 07:31:27 PM 43.7508 -98.1469 276° West 407 468 34,000  Level Minneapolis Center
Mon 07:32:29 PM 43.7606 -98.3014 275° West 404 465 34,000  Level Minneapolis Center
Mon 07:33:31 PM 43.7714 -98.4558 276° West 405 466 34,000  Level Minneapolis Center
Mon 07:34:33 PM 43.7811 -98.6117 275° West 406 467 34,000  Level Minneapolis Center
Mon 07:35:34 PM 43.7886 -98.7297 275° West 407 468 34,000  Level Minneapolis Center
Mon 07:36:37 PM 43.8017 -98.9467 275° West 404 465 34,000  Level Minneapolis Center
Mon 07:37:38 PM 43.8114 -99.1003 275° West 402 463 34,000  Level Minneapolis Center
Mon 07:38:40 PM 43.8203 -99.2553 275° West 402 463 34,000  Level Minneapolis Center
Mon 07:39:42 PM 43.8286 -99.4075 274° West 398 458 34,000  Level Minneapolis Center
Mon 07:40:44 PM 43.8369 -99.5594 274° West 396 456 34,000  Level Minneapolis Center
Mon 07:41:46 PM 43.8450 -99.7111 274° West 395 455 34,000  Level Minneapolis Center
Mon 07:42:48 PM 43.8533 -99.8633 274° West 395 455 34,000  Level Minneapolis Center
Mon 07:43:49 PM 43.8625 -100.0144 275° West 394 453 34,000  Level Minneapolis Center
Mon 07:44:51 PM 43.8689 -100.1636 273° West 391 450 34,000  Level Minneapolis Center
Mon 07:45:53 PM 43.8769 -100.3411 274° West 387 445 34,000  Level Minneapolis Center
Mon 07:46:55 PM 43.8842 -100.4900 274° West 386 444 34,000  Level Minneapolis Center
Mon 07:47:57 PM 43.8922 -100.6419 274° West 390 449 34,000  Level Minneapolis Center
Mon 07:48:59 PM 43.8989 -100.7906 274° West 387 445 34,000  Level Minneapolis Center
Mon 07:50:01 PM 43.9047 -100.9408 273° West 389 448 34,000  Level Minneapolis Center
Mon 07:51:03 PM 43.9119 -101.0931 274° West 393 452 34,000  Level Minneapolis Center
Mon 07:52:04 PM 43.9189 -101.2733 273° West 392 451 34,000  Level Minneapolis Center
Mon 07:53:06 PM 43.9244 -101.4222 273° West 390 449 34,000  Level Minneapolis Center
Mon 07:53:42 PM 43.9272 -101.5111 273° West 386 444 34,000  Level Denver Center
Mon 07:54:55 PM 43.9336 -101.6636 273° West 393 452 34,000  Level Denver Center
Mon 07:55:57 PM 43.9381 -101.8414 272° West 387 445 34,000  Level Denver Center
Mon 07:56:59 PM 43.9417 -101.9922 272° West 388 447 34,000  Level Denver Center
Mon 07:58:01 PM 43.9481 -102.1447 273° West 393 452 34,000  Level Denver Center
Mon 07:59:02 PM 43.9539 -102.2972 273° West 395 455 34,000  Level Denver Center
Mon 08:00:04 PM 43.9594 -102.4503 273° West 396 456 34,000  Level Denver Center
Mon 08:01:06 PM 43.9642 -102.6000 273° West 392 451 34,000  Level Denver Center
Mon 08:02:07 PM 43.9694 -102.7806 272° West 390 449 34,000  Level Denver Center
Mon 08:03:09 PM 43.9750 -102.9303 273° West 391 450 34,000  Level Denver Center
Mon 08:04:11 PM 43.9786 -103.0733 272° West 390 449 34,000  Level Denver Center
Mon 08:05:12 PM 43.9817 -103.2408 272° West 389 448 34,000  Level Denver Center
Mon 08:06:14 PM 43.9825 -103.3833 271° West 387 445 34,000  Level Denver Center
Mon 08:07:16 PM 43.9522 -103.5439 255° West 388 447 34,000  Level Denver Center
Mon 08:08:17 PM 43.9281 -103.6842 257° West 391 450 34,000  Level Denver Center
Mon 08:09:19 PM 43.8967 -103.8431 255° West 386 444 34,000  Level Denver Center
Mon 08:10:33 PM 43.8725 -103.9794 256° West 382 440 34,000  Level Denver Center
Mon 08:11:47 PM 43.8381 -104.1614 255° West 383 441 34,000  Level Denver Center
Mon 08:12:49 PM 43.8083 -104.3203 256° West 384 442 34,000  Level Denver Center
Mon 08:13:51 PM 43.7778 -104.4800 255° West 384 442 34,000  Level Denver Center
Mon 08:14:52 PM 43.7514 -104.6164 255° West 386 444 34,000  Level Denver Center
Mon 08:15:54 PM 43.7200 -104.7761 255° West 386 444 34,000  Level Denver Center
Mon 08:16:56 PM 43.6936 -104.9128 255° West 386 444 34,000  Level Denver Center
Mon 08:17:57 PM 43.6625 -105.0742 255° West 388 447 34,000  Level Denver Center
Mon 08:18:59 PM 43.6344 -105.2103 254° West 388 447 34,000  Level Denver Center
Mon 08:20:01 PM 43.6025 -105.3694 255° West 387 445 34,000  Level Denver Center
Mon 08:21:02 PM 43.5753 -105.5050 255° West 386 444 34,000  Level Denver Center
Mon 08:22:04 PM 43.5469 -105.6425 254° West 389 448 34,000  Level Denver Center
Mon 08:23:06 PM 43.5139 -105.8033 254° West 390 449 34,000  Level Denver Center
Mon 08:24:07 PM 43.4850 -105.9408 254° West 391 450 34,000  Level Denver Center
Mon 08:25:09 PM 43.4517 -106.0997 254° West 389 448 34,000  Level Denver Center
Mon 08:26:11 PM 43.4222 -106.2361 253° West 387 445 34,000  Level Denver Center
Mon 08:27:13 PM 43.3900 -106.3936 254° West 386 444 34,000  Level Denver Center
Mon 08:28:14 PM 43.3608 -106.5272 253° West 383 441 34,000  Level Denver Center
Mon 08:29:16 PM 43.3283 -106.6844 254° West 382 440 34,000  Level Denver Center
Mon 08:30:18 PM 43.2992 -106.8189 253° West 384 442 34,000  Level Denver Center
Mon 08:31:01 PM 43.2778 -106.9114 252° West 384 442 34,000  Level Salt Center
Mon 08:32:02 PM 43.2431 -107.0711 253° West 377 434 34,000  Level Salt Center
Mon 08:33:04 PM 43.2139 -107.2056 253° West 383 441 34,000  Level Salt Center
Mon 08:33:23 PM 43.2042 -107.2525 254° West 388 447 34,000  Level Denver Center
Mon 08:34:25 PM 43.1739 -107.3900 253° West 391 450 34,000  Level Denver Center
Mon 08:35:08 PM 43.1486 -107.5053 253° West 394 453 34,000  Level Salt Center
Mon 08:36:09 PM 43.1175 -107.6433 253° West 396 456 34,000  Level Salt Center
Mon 08:37:11 PM 43.0825 -107.8042 253° West 394 453 34,000  Level Salt Center
Mon 08:38:13 PM 43.0506 -107.9408 252° West 392 451 34,000  Level Salt Center
Mon 08:39:14 PM 43.0189 -108.0783 253° West 396 456 34,000  Level Salt Center
Mon 08:40:16 PM 42.9828 -108.2364 253° West 390 449 34,000  Level Salt Center
Mon 08:41:18 PM 42.9494 -108.3797 252° West 387 445 34,000  Level Salt Center
Mon 08:42:19 PM 42.9197 -108.5133 253° West 386 444 34,000  Level Salt Center
Mon 08:43:21 PM 42.8828 -108.6678 252° West 384 442 34,000  Level Salt Center
Mon 08:44:23 PM 42.8519 -108.8025 253° West 388 447 34,000  Level Salt Center
Mon 08:45:25 PM 42.8150 -108.9575 252° West 388 447 34,000  Level Salt Center
Mon 08:46:26 PM 42.7822 -109.0911 252° West 389 448 34,000  Level Salt Center
Mon 08:47:28 PM 42.7453 -109.2489 252° West 393 452 34,000  Level Salt Center
Mon 08:48:30 PM 42.7125 -109.3836 252° West 393 452 34,000  Level Salt Center
Mon 08:49:31 PM 42.6800 -109.5147 251° West 386 444 34,000  Level Salt Center
Mon 08:50:33 PM 42.6411 -109.6711 251° West 391 450 34,000  Level Salt Center
Mon 08:51:34 PM 42.6086 -109.8044 252° West 389 448 34,000  Level Salt Center
Mon 08:52:36 PM 42.5703 -109.9578 251° West 386 444 34,000  Level Salt Center
Mon 08:53:38 PM 42.5381 -110.0900 252° West 387 445 34,000  Level Salt Center
Mon 08:54:39 PM 42.4992 -110.2425 251° West 385 443 34,000  Level Salt Center
Mon 08:55:41 PM 42.4656 -110.3744 251° West 387 445 34,000  Level Salt Center
Mon 08:56:42 PM 42.4267 -110.5286 251° West 388 447 34,000  Level Salt Center
Mon 08:57:44 PM 42.3931 -110.6614 251° West 391 450 34,000  Level Salt Center
Mon 08:58:45 PM 42.3586 -110.7942 251° West 391 450 34,000  Level Salt Center
Mon 08:59:47 PM 42.3181 -110.9494 251° West 393 452 34,000  Level Salt Center
Mon 09:00:48 PM 42.2831 -111.0828 251° West 389 448 34,000  Level Salt Center
Mon 09:01:50 PM 42.2461 -111.2219 250° West 394 453 34,000  Level Salt Center
Mon 09:02:51 PM 42.2106 -111.3592 251° West 391 450 34,000  Level Salt Center
Mon 09:03:53 PM 42.1739 -111.4975 250° West 393 452 34,000  Level Salt Center
Mon 09:04:54 PM 42.1294 -111.6617 250° West 391 450 34,000  Level Salt Center
Mon 09:05:56 PM 42.0936 -111.7953 250° West 384 442 34,000  Level Salt Center
Mon 09:06:57 PM 42.0581 -111.9311 251° West 386 444 34,000  Level Salt Center
Mon 09:07:59 PM 42.0203 -112.0675 250° West 389 448 34,000  Level Salt Center
Mon 09:09:00 PM 41.9839 -112.2019 250° West 386 444 34,000  Level Salt Center
Mon 09:10:02 PM 41.9475 -112.3356 250° West 384 442 34,000  Level Salt Center
Mon 09:11:03 PM 41.9108 -112.4686 250° West 383 441 34,000  Level Salt Center
Mon 09:12:05 PM 41.8647 -112.6300 249° West 388 447 34,000  Level Salt Center
Mon 09:13:06 PM 41.8278 -112.7636 250° West 386 444 34,000  Level Salt Center
Mon 09:14:08 PM 41.7914 -112.8967 250° West 384 442 34,000  Level Salt Center
Mon 09:15:09 PM 41.7533 -113.0297 249° West 385 443 34,000  Level Salt Center
Mon 09:16:11 PM 41.7158 -113.1653 250° West 388 447 34,000  Level Salt Center
Mon 09:17:12 PM 41.6769 -113.2989 249° West 387 445 34,000  Level Salt Center
Mon 09:18:13 PM 41.6392 -113.4306 249° West 383 441 34,000  Level Salt Center
Mon 09:19:15 PM 41.6011 -113.5633 249° West 384 442 34,000  Level Salt Center
Mon 09:20:16 PM 41.5536 -113.7222 248° West 385 443 34,000  Level Salt Center
Mon 09:21:18 PM 41.5167 -113.8547 250° West 383 441 34,000  Level Salt Center
Mon 09:22:19 PM 41.4778 -113.9872 249° West 385 443 34,000  Level Salt Center
Mon 09:23:20 PM 41.4394 -114.1169 249° West 380 437 34,000  Level Salt Center
Mon 09:24:22 PM 41.4017 -114.2458 249° West 377 434 34,000  Level Salt Center
Mon 09:25:23 PM 41.3639 -114.3744 249° West 374 430 34,000  Level Salt Center
Mon 09:26:24 PM 41.3244 -114.5025 248° West 375 432 34,000  Level Salt Center
Mon 09:27:26 PM 41.2861 -114.6281 248° West 370 426 34,000  Level Salt Center
Mon 09:28:27 PM 41.2414 -114.7800 249° West 368 423 34,000  Level Salt Center
Mon 09:29:28 PM 41.2050 -114.9014 248° West 367 422 34,000  Level Salt Center
Mon 09:30:30 PM 41.1675 -115.0208 247° West 366 421 34,000  Level Salt Center
Mon 09:31:31 PM 41.1250 -115.1592 248° West 363 418 34,000  Level Salt Center
Mon 09:32:32 PM 41.0894 -115.2786 248° West 364 419 34,000  Level Salt Center
Mon 09:33:34 PM 41.0533 -115.3978 248° West 364 419 34,000  Level Salt Center
Mon 09:34:35 PM 41.0100 -115.5364 248° West 365 420 34,000  Level Salt Center
Mon 09:35:36 PM 40.9717 -115.6558 247° West 366 421 34,000  Level Salt Center
Mon 09:36:38 PM 40.9350 -115.7750 248° West 365 420 34,000  Level Salt Center
Mon 09:37:39 PM 40.8917 -115.9147 248° West 367 422 34,000  Level Salt Center
Mon 09:38:40 PM 40.8539 -116.0361 248° West 372 428 34,000  Level Salt Center
Mon 09:39:41 PM 40.8089 -116.1786 247° West 376 433 34,000  Level Salt Center
Mon 09:40:43 PM 40.7686 -116.3019 247° West 380 437 34,000  Level Salt Center
Mon 09:41:44 PM 40.7306 -116.4211 247° West 372 428 34,000  Level Salt Center
Mon 09:42:46 PM 40.6867 -116.5603 247° West 369 425 34,000  Level Salt Center
Mon 09:43:47 PM 40.6475 -116.6808 247° West 373 429 34,000  Level Salt Center
Mon 09:44:48 PM 40.6022 -116.8197 247° West 373 429 34,000  Level Salt Center
Mon 09:45:50 PM 40.5647 -116.9367 247° West 369 425 34,000  Level Salt Center
Mon 09:46:51 PM 40.5292 -117.0761 251° West 365 420 34,000  Level Salt Center
Mon 09:47:52 PM 40.4975 -117.1961 251° West 365 420 34,000 -439 Level Salt Center
Mon 09:48:54 PM 40.4617 -117.3358 251° West 363 418 33,100 -878 Descending Salt Center
Mon 09:49:55 PM 40.4350 -117.4592 254° West 366 421 32,200 -541 Descending Salt Center
Mon 09:50:56 PM 40.4033 -117.5831 251° West 372 428 32,000 -390 Descending Salt Center
Mon 09:51:58 PM 40.3319 -117.7136 234° Southwest 393 452 31,400 -732 Descending Salt Center
Mon 09:52:59 PM 40.2694 -117.8306 235° Southwest 405 466 30,500 -641 Descending Salt Center
Mon 09:54:09 PM 40.1961 -117.9669 235° Southwest 410 472 30,000 -550 Descending Oakland Center
Mon 09:55:10 PM 40.1286 -118.0878 234° Southwest 413 475 29,300 -492 Descending Oakland Center
Mon 09:56:11 PM 40.0625 -118.2097 235° Southwest 410 472 29,000 -148 Descending Oakland Center
Mon 09:57:12 PM 39.9828 -118.3539 234° Southwest 410 472 29,000  Level Oakland Center
Mon 09:58:13 PM 39.9161 -118.4761 235° Southwest 415 478 29,000  Level Oakland Center
Mon 09:59:15 PM 39.8494 -118.5983 235° Southwest 414 476 29,000  Level Oakland Center
Mon 10:00:16 PM 39.7817 -118.7194 234° Southwest 418 481 29,000 -453 Level Oakland Center
Mon 10:01:54 PM 39.6667 -118.9167 233° Southwest 421 484 27,800 -783 Descending Northern TRACON
Mon 10:02:11 PM 39.6453 -118.9611 238° Southwest 418 481 27,500 -1,553 Descending Salt Center
Mon 10:03:19 PM 39.5783 -119.0817 234° Southwest 416 479 25,600 -2,186 Descending Oakland Center
Mon 10:04:20 PM 39.5114 -119.1992 234° Southwest 410 472 22,800 -3,197 Descending Oakland Center
Mon 10:05:21 PM 39.4356 -119.3356 234° Southwest 394 453 19,100 -3,220 Descending Oakland Center
Mon 10:06:23 PM 39.3747 -119.4450 234° Southwest 381 438 16,200 -2,927 Descending Oakland Center
Mon 10:07:24 PM 39.2950 -119.5236 217° Southwest 376 433 13,100 -2,557 Descending Oakland Center
Mon 10:08:25 PM 39.2103 -119.5881 211° Southwest 369 425 11,000 -1,131 Descending Oakland Center
Mon 10:09:26 PM 39.1828 -119.6753 248° West 314 361 10,800 -885 Descending Oakland Center
Mon 10:10:27 PM 39.2250 -119.7264 317° Northwest 257 296 9,200 -836 Descending Oakland Center
Mon 10:11:28 PM 39.2764 -119.7692 327° Northwest 233 268 9,100 -246 Descending Oakland Center
Mon 10:12:29 PM 39.3400 -119.7622 North 222 255 8,700 -393 Descending Oakland Center

Login

Don't have an account? Register now (free) for customized features, flight alerts, and more!